Terminal Aerodrome Forecast
Issued by NWS Charleston, WV

Home | Current Version | Previous Version | Text Only | Print | Product List | Glossary On
Versions: 1 2 3 4 5 6 7 8 9 10 11 12 13 14 15 16 17 18 19 20 21 22 23
000
FTUS41 KRLX 230244 AAA
TAFHTS
TAF AMD
KHTS 230244Z 2303/2324 16008KT P6SM BKN050
      TEMPO 2304/2305 4SM SHRA OVC025
     FM230500 20009G16KT P6SM OVC040
      TEMPO 2305/2306 4SM SHRA OVC025
     FM230600 22009G18KT P6SM OVC025
      TEMPO 2306/2307 4SM -SHRA OVC015
     FM230900 23009G17KT P6SM BKN035
     FM231500 24013G23KT P6SM OVC040
     FM231800 24012G25KT P6SM OVC025
     FM232300 25010G19KT P6SM OVC020=

USA.gov is the U.S. government's official web portal to all federal, state and local government web resources and services.